Byron, IL (61010)

3:28 PM CST on March 03, 2015 (GMT -0600)
Crestview | Change Station
CLOSE
Current Station
Personal Weather Station
Location: Stillman Valley, IL
Elevation: 843 ft
Nearby Weather Stations

Elev 843 ft 42.14 °N, 89.21 °W | Updated 8 seconds ago

Fog
Fog
32.0 °F
Feels Like 22 °F
N
13.0
Wind Variable Wind from WNW
Gusts 20.0 mph

Today
High -- | Low -- °F
--% Chance of Precip.
Yesterday
High -- | Low -- °F
Precip. -- in
6:29 AM 5:49 PM
Waxing Gibbous, 97% visible
Pressure 29.69 in
Visibility 8.0 miles
Clouds Overcast 1100 ft
Windchill 22 °F
Dew Point 32 °F
Humidity 100%
Rainfall 0.25 in
Snow Depth Not available.
UV 1 out of 12
Pollen .50 out of 12
Air Quality Not available.
Flu Activity Not available.
METAR KRFD 032054Z 28009KT 8SM OVC011 01/M02 A2966 RMK AO2 DZE18 SLP053 P0000 60000 T00061017 53001

More Conditions Fewer Conditions

Pressure 29.69 in
Visibility 8.0 miles
Clouds Overcast 1100 ft
Windchill 22 °F
Dew Point 32 °F
Humidity 100%
Rainfall 0.25 in
Snow Depth Not available.
UV 1 out of 12
Pollen .50 out of 12
Air Quality Not available.
Flu Activity Not available.
METAR KRFD 032054Z 28009KT 8SM OVC011 01/M02 A2966 RMK AO2 DZE18 SLP053 P0000 60000 T00061017 53001

More Conditions Fewer Conditions

10-Day Weather Forecast

Almanac

Astronomy

Mar. 03, 2015 Rise Set
Actual Time
Civil Twilight
Nautical Twilight
Astronomical Twilight
Moon
Length of Visible Light
Length of Day
Tomorrow will be .
, % of the Moon is Illuminated

Today's Extremes

State Highs State Lows

Community

WunderPhotos

Upload Photos

1,802,261 photos uploaded!

WunderBlogs® & News

Nearby

Air Quality

  Air Quality AQ Index Pollutant
Not available.

Snow Depth

Station Depth Elevation

Earthquake Activity

City Distance Mag. Time & Date
Minimum magnitude displayed is 2.5.

Coastal Water Temperatures

Place Temperature

Nearby Weather Stations